New Winchester, Ohio
Current Conditions -  °F | °C
As of 4:53 AM on Thursday 23 Oct 2014 (Local Time) from KMNN Reporting Station
Haze Haze  
Wind Chill:   Ceiling: Unl
Heat Index:   Visibility: 4mi
Dew Point:   Wind: 6mph
Humidity: 96%   Direction: 300°WNW
Pressure: 30.24"   Gusts: NA
Location:  40.815°N, 82.9723°W
Report Text: KMNN 230853Z AUTO 30005KT 4SM BR FEW009 04/03 A3024 RMK AO2 SLP247 T00390033 56002 TSNO
Loading
Personal Weather Stations






























Interactive Weather Map
Tropical Storm Tracking
New forecast layout! Learn more

10-Day Weather Forecast

Advertisements
Track Severe Weather on mobile